createdAt,value
2019-02-22T00:01:00.864Z,103499.31
2019-02-22T00:02:03.906Z,103497.48
2019-02-22T00:03:05.052Z,103491.28
2019-02-22T00:04:06.156Z,103486.87
2019-02-22T00:05:07.372Z,103489.55
2019-02-22T00:06:08.489Z,103491.84
2019-02-22T00:07:09.603Z,103491.45
2019-02-22T00:08:10.721Z,103494.52
2019-02-22T00:09:11.830Z,103498.14
2019-02-22T00:10:13.062Z,103494.13
2019-02-22T00:11:14.173Z,103500.82
2019-02-22T00:12:15.292Z,103501.77
2019-02-22T00:13:16.879Z,103501.77
2019-02-22T00:14:17.997Z,103498.21
2019-02-22T00:15:19.120Z,103497.36
2019-02-22T00:16:20.237Z,103499.09
2019-02-22T00:17:21.354Z,103502.23
2019-02-22T00:18:22.460Z,103504.91
2019-02-22T00:19:23.600Z,103504.06
2019-02-22T00:20:24.741Z,103500.11
2019-02-22T00:21:25.853Z,103497.82
2019-02-22T00:22:27.072Z,103502.33
2019-02-22T00:23:28.293Z,103506.80
2019-02-22T00:24:29.512Z,103508.63
2019-02-22T00:25:30.738Z,103511.31
2019-02-22T00:26:31.853Z,103512.66
2019-02-22T00:27:32.979Z,103522.09
2019-02-22T00:28:34.085Z,103524.71
2019-02-22T00:29:35.206Z,103521.25
2019-02-22T00:30:36.433Z,103527.00
2019-02-22T00:31:37.548Z,103527.95
2019-02-22T00:32:38.669Z,103534.64
2019-02-22T00:33:39.893Z,103528.89
2019-02-22T00:34:41.104Z,103523.54
2019-02-22T00:35:42.253Z,103526.11
2019-02-22T00:36:43.501Z,103522.40
2019-02-22T00:37:44.586Z,103531.58
2019-02-22T00:38:45.809Z,103532.91
2019-02-22T00:39:46.924Z,103535.59
2019-02-22T00:40:48.082Z,103534.25
2019-02-22T00:41:49.178Z,103535.10
2019-02-22T00:42:50.522Z,103541.80
2019-02-22T00:43:51.614Z,103538.27
2019-02-22T00:44:52.738Z,103536.05
2019-02-22T00:45:53.862Z,103540.95
2019-02-22T00:46:55.157Z,103539.61
2019-02-22T00:47:56.269Z,103535.59
2019-02-22T00:48:57.383Z,103548.98
2019-02-22T00:49:58.508Z,103544.55
2019-02-22T00:50:59.630Z,103548.98
2019-02-22T00:52:00.985Z,103550.78
2019-02-22T00:53:02.120Z,103545.88
2019-02-22T00:54:03.241Z,103544.16
2019-02-22T00:55:04.652Z,103545.98
2019-02-22T00:56:05.807Z,103547.72
2019-02-22T00:57:06.918Z,103546.83
2019-02-22T00:58:08.037Z,103551.80
2019-02-22T00:59:09.153Z,103559.38
2019-02-22T01:00:10.364Z,103557.16
2019-02-22T01:01:11.813Z,103556.20
2019-02-22T01:02:12.948Z,103561.17
2019-02-22T01:03:14.065Z,103563.39
2019-02-22T01:04:15.279Z,103565.19
2019-02-22T01:05:16.392Z,103563.42
2019-02-22T01:06:17.521Z,103570.55
2019-02-22T01:07:18.632Z,103568.33
2019-02-22T01:08:19.744Z,103569.21
2019-02-22T01:09:20.977Z,103573.22
2019-02-22T01:10:30.806Z,103565.64
2019-02-22T01:11:25.238Z,103567.94
2019-02-22T01:12:26.352Z,103566.11
2019-02-22T01:13:27.465Z,103563.92
2019-02-22T01:14:28.681Z,103561.23
2019-02-22T01:15:33.161Z,103569.27
2019-02-22T01:16:34.281Z,103567.94
2019-02-22T01:17:35.390Z,103573.75
2019-02-22T01:18:36.507Z,103571.06
2019-02-22T01:19:37.619Z,103573.75
2019-02-22T01:20:38.740Z,103572.41
2019-02-22T01:21:39.897Z,103570.67
2019-02-22T01:22:41.016Z,103572.41
2019-02-22T01:23:42.204Z,103575.09
2019-02-22T01:24:43.346Z,103572.97
2019-02-22T01:25:44.473Z,103582.73
2019-02-22T01:26:45.698Z,103573.84
2019-02-22T01:27:46.817Z,103576.53
2019-02-22T01:28:48.033Z,103579.66
2019-02-22T01:29:49.250Z,103578.72
2019-02-22T01:30:50.460Z,103576.53
2019-02-22T01:31:51.588Z,103572.97
2019-02-22T01:32:52.834Z,103579.20
2019-02-22T01:33:55.755Z,103574.30
2019-02-22T01:34:56.869Z,103583.22
2019-02-22T01:35:57.989Z,103577.86
2019-02-22T01:36:59.118Z,103570.78
2019-02-22T01:38:00.335Z,103575.64
2019-02-22T01:39:01.453Z,103578.32
2019-02-22T01:40:03.767Z,103571.23
2019-02-22T01:41:04.887Z,103565.48
2019-02-22T01:42:06.157Z,103572.18
2019-02-22T01:43:07.271Z,103569.11
2019-02-22T01:44:19.244Z,103575.41
2019-02-22T01:45:20.357Z,103568.33
2019-02-22T01:46:21.714Z,103570.61
2019-02-22T01:47:22.853Z,103572.05
2019-02-22T01:48:23.969Z,103563.13
2019-02-22T01:49:25.088Z,103565.52
2019-02-22T01:50:26.193Z,103558.89
2019-02-22T01:51:27.508Z,103562.52
2019-02-22T01:52:28.684Z,103559.84
2019-02-22T01:53:29.822Z,103561.67
2019-02-22T01:54:30.939Z,103565.29
2019-02-22T01:55:32.049Z,103558.10
2019-02-22T01:56:33.172Z,103561.34
2019-02-22T01:57:34.306Z,103562.67
2019-02-22T01:58:35.421Z,103570.70
2019-02-22T01:59:36.536Z,103566.30
2019-02-22T02:00:37.656Z,103564.57
2019-02-22T02:01:38.761Z,103565.52
2019-02-22T02:02:39.897Z,103569.05
2019-02-22T02:03:41.018Z,103565.13
2019-02-22T02:04:42.236Z,103568.75
2019-02-22T02:05:43.349Z,103571.42
2019-02-22T02:06:44.556Z,103571.42
2019-02-22T02:07:45.708Z,103563.84
2019-02-22T02:08:46.824Z,103565.68
2019-02-22T02:09:47.934Z,103575.05
2019-02-22T02:10:54.161Z,103572.37
2019-02-22T02:11:52.069Z,103573.31
2019-02-22T02:12:53.220Z,103573.71
2019-02-22T02:13:54.337Z,103575.99
2019-02-22T02:14:55.756Z,103575.60
2019-02-22T02:15:56.868Z,103592.06
2019-02-22T02:16:57.981Z,103581.91
2019-02-22T02:17:59.136Z,103585.37
2019-02-22T02:19:00.311Z,103593.01
2019-02-22T02:20:01.490Z,103589.94
2019-02-22T02:21:02.971Z,103598.36
2019-02-22T02:22:04.085Z,103593.07
2019-02-22T02:23:05.578Z,103593.95
2019-02-22T02:24:06.696Z,103597.97
2019-02-22T02:25:08.820Z,103589.55
2019-02-22T02:26:09.930Z,103594.41
2019-02-22T02:27:11.044Z,103581.91
2019-02-22T02:28:12.198Z,103585.43
2019-02-22T02:29:13.316Z,103582.30
2019-02-22T02:30:14.439Z,103595.69
2019-02-22T02:31:15.553Z,103592.06
2019-02-22T02:32:16.675Z,103587.66
2019-02-22T02:33:17.836Z,103592.61
2019-02-22T02:34:18.951Z,103585.43
2019-02-22T02:35:20.065Z,103591.67
2019-02-22T02:36:21.200Z,103590.78
2019-02-22T02:37:22.404Z,103592.13
2019-02-22T02:38:23.533Z,103591.27
2019-02-22T02:39:24.763Z,103598.81
2019-02-22T02:40:25.877Z,103599.31
2019-02-22T02:41:26.990Z,103603.32
2019-02-22T02:42:28.202Z,103607.34
2019-02-22T02:43:29.354Z,103605.61
2019-02-22T02:44:30.469Z,103607.34
2019-02-22T02:45:31.690Z,103614.48
2019-02-22T02:46:32.805Z,103612.20
2019-02-22T02:47:33.922Z,103611.36
2019-02-22T02:48:35.076Z,103612.70
2019-02-22T02:49:36.195Z,103613.09
2019-02-22T02:50:37.311Z,103616.71
2019-02-22T02:51:38.425Z,103610.41
2019-02-22T02:52:39.745Z,103612.14
2019-02-22T02:53:40.904Z,103614.82
2019-02-22T02:54:42.021Z,103617.11
2019-02-22T02:55:43.126Z,103619.29
2019-02-22T02:56:46.286Z,103617.50
2019-02-22T02:57:47.265Z,103621.52
2019-02-22T02:58:48.426Z,103617.89
2019-02-22T02:59:49.544Z,103622.76
2019-02-22T03:00:50.761Z,103624.09
2019-02-22T03:01:51.885Z,103617.89
2019-02-22T03:02:53.005Z,103626.77
2019-02-22T03:03:54.338Z,103617.01
2019-02-22T03:04:55.589Z,103620.96
2019-02-22T03:06:01.539Z,103616.55
2019-02-22T03:07:04.648Z,103623.64
2019-02-22T03:08:05.772Z,103619.23
2019-02-22T03:09:08.900Z,103619.23
2019-02-22T03:10:10.009Z,103621.41
2019-02-22T03:11:20.091Z,103613.48
2019-02-22T03:12:14.250Z,103621.41
2019-02-22T03:13:15.373Z,103617.89
2019-02-22T03:14:16.525Z,103616.06
2019-02-22T03:15:18.741Z,103611.20
2019-02-22T03:16:19.858Z,103611.59
2019-02-22T03:17:21.095Z,103610.70
2019-02-22T03:18:22.310Z,103605.84
2019-02-22T03:19:23.543Z,103607.64
2019-02-22T03:20:24.762Z,103611.59
2019-02-22T03:21:25.876Z,103615.61
2019-02-22T03:22:27.006Z,103616.06
2019-02-22T03:23:28.137Z,103621.91
2019-02-22T03:24:29.263Z,103627.72
2019-02-22T03:25:30.382Z,103619.23
2019-02-22T03:26:31.500Z,103621.41
2019-02-22T03:27:32.622Z,103626.77
2019-02-22T03:28:33.728Z,103625.92
2019-02-22T03:29:34.884Z,103622.30
2019-02-22T03:30:36.119Z,103624.58
2019-02-22T03:31:37.237Z,103624.98
2019-02-22T03:32:38.440Z,103630.33
2019-02-22T03:33:39.557Z,103628.99
2019-02-22T03:34:40.681Z,103624.48
2019-02-22T03:35:41.914Z,103624.48
2019-02-22T03:36:43.008Z,103624.03
2019-02-22T03:37:44.124Z,103620.86
2019-02-22T03:38:45.240Z,103618.67
2019-02-22T03:39:46.382Z,103621.75
2019-02-22T03:40:47.485Z,103612.83
2019-02-22T03:41:48.605Z,103617.73
2019-02-22T03:42:49.708Z,103615.05
2019-02-22T03:43:50.826Z,103623.09
2019-02-22T03:44:51.973Z,103618.19
2019-02-22T03:45:53.085Z,103622.59
2019-02-22T03:46:54.199Z,103620.41
2019-02-22T03:47:55.309Z,103618.58
2019-02-22T03:48:56.529Z,103617.73
2019-02-22T03:49:58.024Z,103619.92
2019-02-22T03:50:59.228Z,103619.92
2019-02-22T03:52:02.252Z,103612.38
2019-02-22T03:53:07.889Z,103615.05
2019-02-22T03:54:09.022Z,103616.39
2019-02-22T03:55:10.193Z,103617.73
2019-02-22T03:56:11.288Z,103621.26
2019-02-22T03:57:12.517Z,103622.69
2019-02-22T03:58:13.622Z,103625.77
2019-02-22T03:59:14.739Z,103632.45
2019-02-22T04:00:15.858Z,103628.90
2019-02-22T04:01:16.972Z,103626.22
2019-02-22T04:02:18.103Z,103624.03
2019-02-22T04:03:19.345Z,103617.24
2019-02-22T04:04:20.569Z,103618.67
2019-02-22T04:05:21.728Z,103609.30
2019-02-22T04:06:22.848Z,103618.67
2019-02-22T04:07:23.962Z,103614.66
2019-02-22T04:08:25.083Z,103614.17
2019-02-22T04:09:26.196Z,103613.72
2019-02-22T04:10:27.352Z,103622.20
2019-02-22T04:11:28.462Z,103621.26
2019-02-22T04:12:29.587Z,103619.07
2019-02-22T04:13:30.806Z,103620.86
2019-02-22T04:14:31.920Z,103619.47
2019-02-22T04:15:33.376Z,103623.09
2019-02-22T04:16:34.488Z,103619.07
2019-02-22T04:17:35.600Z,103619.07
2019-02-22T04:18:36.718Z,103619.47
2019-02-22T04:19:37.828Z,103623.48
2019-02-22T04:20:40.638Z,103618.12
2019-02-22T04:21:41.721Z,103620.41
2019-02-22T04:22:44.556Z,103614.56
2019-02-22T04:23:45.732Z,103611.04
2019-02-22T04:24:46.861Z,103612.83
2019-02-22T04:25:47.995Z,103610.55
2019-02-22T04:26:49.111Z,103608.75
2019-02-22T04:27:50.292Z,103611.43
2019-02-22T04:28:53.320Z,103613.16
2019-02-22T04:29:54.438Z,103609.14
2019-02-22T04:30:55.563Z,103609.99
2019-02-22T04:31:56.682Z,103606.92
2019-02-22T04:32:57.801Z,103603.79
2019-02-22T04:33:58.921Z,103611.43
2019-02-22T04:35:00.041Z,103608.75
2019-02-22T04:36:01.161Z,103604.73
2019-02-22T04:37:02.486Z,103602.45
2019-02-22T04:38:03.602Z,103600.62
2019-02-22T04:39:05.201Z,103597.09
2019-02-22T04:40:06.326Z,103596.16
2019-02-22T04:41:07.449Z,103595.75
2019-02-22T04:42:08.560Z,103600.16
2019-02-22T04:43:09.682Z,103605.52
2019-02-22T04:44:10.795Z,103611.83
2019-02-22T04:45:12.012Z,103616.23
2019-02-22T04:46:13.142Z,103621.98
2019-02-22T04:47:14.270Z,103621.59
2019-02-22T04:48:15.420Z,103625.60
2019-02-22T04:49:16.491Z,103624.27
2019-02-22T04:50:17.605Z,103625.55
2019-02-22T04:51:18.768Z,103621.59
2019-02-22T04:52:19.892Z,103621.59
2019-02-22T04:53:21.010Z,103621.09
2019-02-22T04:54:22.241Z,103623.78
2019-02-22T04:55:23.354Z,103621.59
2019-02-22T04:56:24.586Z,103621.59
2019-02-22T04:57:25.705Z,103622.92
2019-02-22T04:58:26.823Z,103621.98
2019-02-22T04:59:27.940Z,103623.32
2019-02-22T05:00:29.057Z,103622.44
2019-02-22T05:01:30.185Z,103622.92
2019-02-22T05:02:31.300Z,103620.64
2019-02-22T05:03:32.438Z,103621.59
2019-02-22T05:04:33.578Z,103624.27
2019-02-22T05:05:34.696Z,103628.73
2019-02-22T05:06:35.921Z,103622.05
2019-02-22T05:07:37.037Z,103631.42
2019-02-22T05:08:38.153Z,103622.05
2019-02-22T05:09:39.373Z,103630.96
2019-02-22T05:10:40.485Z,103621.59
2019-02-22T05:11:41.643Z,103629.23
2019-02-22T05:12:42.764Z,103626.55
2019-02-22T05:13:43.877Z,103625.21
2019-02-22T05:14:44.991Z,103623.48
2019-02-22T05:15:46.104Z,103626.55
2019-02-22T05:16:47.228Z,103623.48
2019-02-22T05:17:48.349Z,103630.56
2019-02-22T05:18:49.470Z,103621.26
2019-02-22T05:19:50.685Z,103619.86
2019-02-22T05:20:51.798Z,103620.31
2019-02-22T05:21:52.949Z,103621.19
2019-02-22T05:23:03.344Z,103618.52
2019-02-22T05:23:57.185Z,103613.55
2019-02-22T05:24:58.582Z,103610.48
2019-02-22T05:25:59.695Z,103621.59
2019-02-22T05:27:01.383Z,103619.76
2019-02-22T05:28:02.597Z,103632.23
2019-02-22T05:29:03.708Z,103635.77
2019-02-22T05:30:07.075Z,103634.42
2019-02-22T05:31:08.248Z,103637.11
2019-02-22T05:32:09.375Z,103633.09
2019-02-22T05:33:10.489Z,103630.41
2019-02-22T05:34:11.597Z,103631.30
2019-02-22T05:35:12.704Z,103627.73
2019-02-22T05:36:13.957Z,103630.80
2019-02-22T05:37:15.078Z,103620.58
2019-02-22T05:38:16.183Z,103627.27
2019-02-22T05:39:19.431Z,103629.00
2019-02-22T05:40:20.438Z,103619.70
2019-02-22T05:41:21.553Z,103624.11
2019-02-22T05:42:23.408Z,103627.67
2019-02-22T05:43:24.617Z,103620.09
2019-02-22T05:44:25.733Z,103626.33
2019-02-22T05:45:26.854Z,103620.97
2019-02-22T05:46:28.073Z,103614.73
2019-02-22T05:47:29.239Z,103612.45
2019-02-22T05:48:30.405Z,103610.27
2019-02-22T05:49:31.530Z,103612.45
2019-02-22T05:50:32.642Z,103619.14
2019-02-22T05:51:33.848Z,103615.12
2019-02-22T05:52:35.010Z,103614.18
2019-02-22T05:53:36.144Z,103600.89
2019-02-22T05:54:37.248Z,103609.77
2019-02-22T05:55:38.360Z,103605.75
2019-02-22T05:56:39.531Z,103603.56
2019-02-22T05:57:40.612Z,103607.48
2019-02-22T05:58:41.730Z,103608.04
2019-02-22T05:59:42.950Z,103608.04
2019-02-22T06:00:44.168Z,103608.04
2019-02-22T06:01:45.288Z,103607.58
2019-02-22T06:02:46.523Z,103604.52
2019-02-22T06:03:47.752Z,103601.84
2019-02-22T06:04:49.043Z,103604.02
2019-02-22T06:05:50.157Z,103600.50
2019-02-22T06:06:51.276Z,103603.63
2019-02-22T06:07:52.403Z,103612.05
2019-02-22T06:08:53.636Z,103598.60
2019-02-22T06:09:54.749Z,103601.58
2019-02-22T06:10:56.049Z,103597.95
2019-02-22T06:11:57.152Z,103594.72
2019-02-22T06:12:58.285Z,103600.41
2019-02-22T06:13:59.403Z,103601.97
2019-02-22T06:15:00.523Z,103595.11
2019-02-22T06:16:01.649Z,103591.84
2019-02-22T06:17:13.923Z,103593.41
2019-02-22T06:18:06.007Z,103591.42
2019-02-22T06:19:07.121Z,103587.17
2019-02-22T06:20:12.521Z,103586.52
2019-02-22T06:21:15.390Z,103585.78
2019-02-22T06:22:28.728Z,103578.85
2019-02-22T06:23:19.714Z,103580.34
2019-02-22T06:24:20.825Z,103572.42
2019-02-22T06:25:21.962Z,103583.30
2019-02-22T06:26:23.068Z,103583.84
2019-02-22T06:27:24.182Z,103578.14
2019-02-22T06:28:25.413Z,103578.25
2019-02-22T06:29:26.526Z,103575.27
2019-02-22T06:30:27.646Z,103572.13
2019-02-22T06:31:28.865Z,103569.59
2019-02-22T06:32:30.086Z,103566.55
2019-02-22T06:33:31.215Z,103572.48
2019-02-22T06:34:32.356Z,103569.91
2019-02-22T06:35:33.472Z,103573.12
2019-02-22T06:36:34.585Z,103578.62
2019-02-22T06:37:35.700Z,103576.98
2019-02-22T06:38:36.834Z,103576.63
2019-02-22T06:39:37.951Z,103574.55
2019-02-22T06:40:39.066Z,103576.13
2019-02-22T06:41:40.174Z,103572.77
2019-02-22T06:42:45.698Z,103571.55
2019-02-22T06:43:44.349Z,103563.70
2019-02-22T06:44:45.464Z,103575.10
2019-02-22T06:45:46.649Z,103571.77
2019-02-22T06:46:47.787Z,103574.20
2019-02-22T06:47:48.896Z,103573.52
2019-02-22T06:48:50.081Z,103571.99
2019-02-22T06:49:51.202Z,103576.22
2019-02-22T06:50:52.315Z,103575.08
2019-02-22T06:51:53.428Z,103579.88
2019-02-22T06:52:54.540Z,103585.13
2019-02-22T06:53:55.798Z,103583.59
2019-02-22T06:54:56.912Z,103580.61
2019-02-22T06:55:58.026Z,103580.54
2019-02-22T06:56:59.209Z,103577.66
2019-02-22T06:58:00.354Z,103587.45
2019-02-22T06:59:01.484Z,103580.16
2019-02-22T07:00:06.259Z,103582.27
2019-02-22T07:01:07.379Z,103581.70
2019-02-22T07:02:08.600Z,103590.14
2019-02-22T07:03:09.719Z,103585.08
2019-02-22T07:04:10.858Z,103593.91
2019-02-22T07:05:11.992Z,103595.14
2019-02-22T07:06:13.097Z,103589.30
2019-02-22T07:07:14.290Z,103583.81
2019-02-22T07:08:15.406Z,103590.53
2019-02-22T07:09:16.541Z,103591.30
2019-02-22T07:10:17.658Z,103593.99
2019-02-22T07:11:26.237Z,103597.56
2019-02-22T07:12:35.304Z,103595.25
2019-02-22T07:13:36.415Z,103597.95
2019-02-22T07:14:37.541Z,103600.14
2019-02-22T07:15:38.774Z,103605.52
2019-02-22T07:16:39.914Z,103604.55
2019-02-22T07:17:41.039Z,103608.20
2019-02-22T07:18:42.157Z,103607.81
2019-02-22T07:19:43.294Z,103605.05
2019-02-22T07:20:44.490Z,103602.83
2019-02-22T07:21:52.790Z,103604.17
2019-02-22T07:22:48.621Z,103595.72
2019-02-22T07:23:49.736Z,103602.44
2019-02-22T07:24:50.875Z,103599.75
2019-02-22T07:25:51.980Z,103598.91
2019-02-22T07:26:53.097Z,103597.56
2019-02-22T07:27:54.320Z,103591.69
2019-02-22T07:28:55.536Z,103594.88
2019-02-22T07:29:56.690Z,103587.66
2019-02-22T07:30:57.911Z,103589.00
2019-02-22T07:32:05.742Z,103583.63
2019-02-22T07:33:02.236Z,103581.33
2019-02-22T07:34:03.344Z,103579.13
2019-02-22T07:35:05.692Z,103585.85
2019-02-22T07:36:06.804Z,103587.66
2019-02-22T07:37:07.928Z,103582.66
2019-02-22T07:38:09.040Z,103583.63
2019-02-22T07:39:10.185Z,103586.70
2019-02-22T07:40:11.416Z,103583.63
2019-02-22T07:41:12.540Z,103578.25
2019-02-22T07:42:13.757Z,103582.66
2019-02-22T07:43:14.979Z,103582.66
2019-02-22T07:44:16.200Z,103586.23
2019-02-22T07:45:17.355Z,103585.73
2019-02-22T07:46:18.471Z,103579.52
2019-02-22T07:47:19.581Z,103583.55
2019-02-22T07:48:20.694Z,103575.95
2019-02-22T07:49:23.857Z,103580.86
2019-02-22T07:50:25.228Z,103578.56
2019-02-22T07:51:26.350Z,103567.89
2019-02-22T07:52:29.265Z,103582.59
2019-02-22T07:53:30.389Z,103573.27
2019-02-22T07:54:31.619Z,103567.50
2019-02-22T07:55:32.736Z,103570.19
2019-02-22T07:56:33.857Z,103568.84
2019-02-22T07:57:34.981Z,103570.19
2019-02-22T07:58:36.097Z,103570.19
2019-02-22T07:59:37.222Z,103572.03
2019-02-22T08:00:38.451Z,103573.38
2019-02-22T08:01:47.319Z,103572.98
2019-02-22T08:02:42.589Z,103576.52
2019-02-22T08:03:43.808Z,103577.09
2019-02-22T08:04:44.941Z,103576.64
2019-02-22T08:05:46.081Z,103579.33
2019-02-22T08:06:47.201Z,103579.89
2019-02-22T08:07:48.332Z,103582.47
2019-02-22T08:08:49.454Z,103579.79
2019-02-22T08:09:50.560Z,103580.36
2019-02-22T08:10:51.693Z,103577.09
2019-02-22T08:11:52.862Z,103569.15
2019-02-22T08:12:54.034Z,103574.91
2019-02-22T08:13:55.153Z,103565.12
2019-02-22T08:14:56.271Z,103570.88
2019-02-22T08:15:57.600Z,103571.27
2019-02-22T08:16:58.717Z,103552.91
2019-02-22T08:17:59.879Z,103560.59
2019-02-22T08:19:02.023Z,103556.94
2019-02-22T08:20:05.512Z,103557.44
2019-02-22T08:21:06.636Z,103557.44
2019-02-22T08:22:07.751Z,103555.22
2019-02-22T08:23:08.871Z,103559.63
2019-02-22T08:24:09.982Z,103556.56
2019-02-22T08:25:11.097Z,103551.19
2019-02-22T08:26:12.225Z,103552.06
2019-02-22T08:27:13.336Z,103558.78
2019-02-22T08:28:14.573Z,103560.97
2019-02-22T08:29:15.811Z,103557.44
2019-02-22T08:30:16.929Z,103557.91
2019-02-22T08:31:18.057Z,103561.94
2019-02-22T08:32:19.175Z,103567.70
2019-02-22T08:33:20.810Z,103564.23
2019-02-22T08:34:21.928Z,103559.25
2019-02-22T08:35:23.047Z,103561.94
2019-02-22T08:36:24.197Z,103565.97
2019-02-22T08:37:25.424Z,103563.28
2019-02-22T08:38:26.548Z,103565.50
2019-02-22T08:39:27.657Z,103567.30
2019-02-22T08:40:28.772Z,103565.50
2019-02-22T08:41:29.933Z,103570.38
2019-02-22T08:42:31.048Z,103565.50
2019-02-22T08:43:32.164Z,103568.66
2019-02-22T08:44:33.383Z,103566.84
2019-02-22T08:45:34.521Z,103571.73
2019-02-22T08:46:35.663Z,103561.36
2019-02-22T08:47:36.774Z,103566.34
2019-02-22T08:48:37.892Z,103566.84
2019-02-22T08:49:39.053Z,103571.27
2019-02-22T08:50:40.183Z,103573.95
2019-02-22T08:51:41.405Z,103571.73
2019-02-22T08:52:42.624Z,103574.03
2019-02-22T08:53:43.739Z,103568.66
2019-02-22T08:54:47.369Z,103567.30
2019-02-22T08:55:47.869Z,103562.05
2019-02-22T08:56:49.065Z,103558.86
2019-02-22T08:57:50.367Z,103555.79
2019-02-22T08:58:51.591Z,103556.29
2019-02-22T08:59:52.708Z,103554.56
2019-02-22T09:00:53.928Z,103549.27
2019-02-22T09:01:55.058Z,103548.87
2019-02-22T09:02:56.173Z,103548.87
2019-02-22T09:03:57.288Z,103549.84
2019-02-22T09:04:58.417Z,103551.18
2019-02-22T09:05:59.549Z,103552.53
2019-02-22T09:07:00.777Z,103550.80
2019-02-22T09:08:01.898Z,103546.00
2019-02-22T09:09:04.610Z,103534.38
2019-02-22T09:10:08.921Z,103546.96
2019-02-22T09:11:10.301Z,103539.86
2019-02-22T09:12:11.431Z,103545.23
2019-02-22T09:13:12.544Z,103546.58
2019-02-22T09:14:13.673Z,103543.97
2019-02-22T09:15:14.791Z,103539.94
2019-02-22T09:16:15.902Z,103542.63
2019-02-22T09:17:17.036Z,103536.41
2019-02-22T09:18:18.153Z,103533.72
2019-02-22T09:19:19.373Z,103534.10
2019-02-22T09:20:20.503Z,103530.53
2019-02-22T09:21:21.604Z,103525.27
2019-02-22T09:22:23.366Z,103523.93
2019-02-22T09:23:24.555Z,103519.90
2019-02-22T09:24:25.675Z,103523.55
2019-02-22T09:25:26.889Z,103530.64
2019-02-22T09:26:28.007Z,103524.89
2019-02-22T09:27:29.131Z,103535.14
2019-02-22T09:28:30.245Z,103515.48
2019-02-22T09:29:31.561Z,103527.08
2019-02-22T09:30:32.682Z,103517.67
2019-02-22T09:31:33.897Z,103502.05
2019-02-22T09:32:35.030Z,103500.70
2019-02-22T09:33:36.524Z,103501.09
2019-02-22T09:34:37.645Z,103493.11
2019-02-22T09:35:39.396Z,103497.52
2019-02-22T09:36:42.724Z,103498.02
2019-02-22T09:37:43.868Z,103498.02
2019-02-22T09:38:44.977Z,103488.62
2019-02-22T09:39:46.094Z,103492.16
2019-02-22T09:40:47.310Z,103495.72
2019-02-22T09:41:48.418Z,103497.06
2019-02-22T09:42:49.545Z,103489.84
2019-02-22T09:43:55.479Z,103488.62
2019-02-22T09:44:53.796Z,103489.47
2019-02-22T09:45:54.908Z,103488.51
2019-02-22T09:46:56.138Z,103492.07
2019-02-22T09:47:57.293Z,103496.48
2019-02-22T09:48:58.411Z,103489.77
2019-02-22T09:49:59.572Z,103484.39
2019-02-22T09:51:00.683Z,103484.39
2019-02-22T09:52:01.812Z,103480.75
2019-02-22T09:53:03.062Z,103479.87
2019-02-22T09:54:04.164Z,103481.71
2019-02-22T09:55:07.572Z,103478.52
2019-02-22T09:56:08.685Z,103478.06
2019-02-22T09:57:09.918Z,103478.06
2019-02-22T09:58:11.175Z,103485.24
2019-02-22T09:59:12.297Z,103488.31
2019-02-22T10:00:13.607Z,103479.41
2019-02-22T10:01:14.724Z,103481.98
2019-02-22T10:02:15.844Z,103477.10
2019-02-22T10:03:17.079Z,103471.73
2019-02-22T10:04:18.296Z,103464.13
2019-02-22T10:05:19.424Z,103470.39
2019-02-22T10:06:21.032Z,103467.20
2019-02-22T10:07:22.148Z,103470.77
2019-02-22T10:08:23.818Z,103461.36
2019-02-22T10:09:24.935Z,103470.66
2019-02-22T10:10:26.060Z,103474.22
2019-02-22T10:11:27.187Z,103464.05
2019-02-22T10:12:28.324Z,103469.69
2019-02-22T10:13:29.442Z,103471.53
2019-02-22T10:14:30.559Z,103469.23
2019-02-22T10:15:31.672Z,103472.80
2019-02-22T10:16:32.780Z,103469.23
2019-02-22T10:17:33.902Z,103465.20
2019-02-22T10:18:35.027Z,103461.55
2019-02-22T10:19:36.144Z,103462.52
2019-02-22T10:20:37.370Z,103463.39
2019-02-22T10:21:38.489Z,103459.25
2019-02-22T10:22:39.596Z,103464.23
2019-02-22T10:23:40.729Z,103459.25
2019-02-22T10:24:41.840Z,103455.72
2019-02-22T10:25:43.060Z,103456.56
2019-02-22T10:26:44.185Z,103450.80
2019-02-22T10:27:45.297Z,103456.09
2019-02-22T10:28:46.430Z,103444.85
2019-02-22T10:29:47.558Z,103443.89
2019-02-22T10:30:48.786Z,103442.55
2019-02-22T10:31:49.909Z,103445.23
2019-02-22T10:32:51.133Z,103450.61
2019-02-22T10:33:52.285Z,103439.40
2019-02-22T10:34:53.506Z,103442.93
2019-02-22T10:35:54.625Z,103444.66
2019-02-22T10:36:55.854Z,103437.55
2019-02-22T10:37:56.960Z,103430.37
2019-02-22T10:38:58.119Z,103427.57
2019-02-22T10:39:59.230Z,103420.97
2019-02-22T10:41:00.347Z,103419.51
2019-02-22T10:42:01.461Z,103419.51
2019-02-22T10:43:02.679Z,103412.41
2019-02-22T10:44:03.808Z,103414.63
2019-02-22T10:45:07.224Z,103417.78
2019-02-22T10:46:08.341Z,103420.97
2019-02-22T10:47:09.457Z,103417.41
2019-02-22T10:48:10.581Z,103413.87
2019-02-22T10:49:11.738Z,103420.09
2019-02-22T10:50:12.870Z,103418.36
2019-02-22T10:51:13.991Z,103416.05
2019-02-22T10:52:15.101Z,103418.28
2019-02-22T10:53:16.217Z,103409.34
2019-02-22T10:54:17.349Z,103410.30
2019-02-22T10:55:18.471Z,103415.67
2019-02-22T10:56:19.607Z,103404.92
2019-02-22T10:57:20.708Z,103411.18
2019-02-22T10:58:21.821Z,103404.92
2019-02-22T10:59:22.953Z,103404.92
2019-02-22T11:00:24.092Z,103407.15
2019-02-22T11:01:25.309Z,103400.52
2019-02-22T11:02:26.435Z,103396.87
2019-02-22T11:03:27.656Z,103397.36
2019-02-22T11:04:28.787Z,103392.45
2019-02-22T11:05:29.908Z,103392.08
2019-02-22T11:06:31.038Z,103390.73
2019-02-22T11:07:32.163Z,103398.33
2019-02-22T11:08:33.279Z,103395.26
2019-02-22T11:09:34.557Z,103395.64
2019-02-22T11:10:36.004Z,103392.08
2019-02-22T11:11:37.135Z,103392.08
2019-02-22T11:12:38.341Z,103391.61
2019-02-22T11:13:39.561Z,103388.54
2019-02-22T11:14:40.718Z,103382.28
2019-02-22T11:15:41.837Z,103392.57
2019-02-22T11:16:42.954Z,103385.35
2019-02-22T11:17:44.204Z,103383.63
2019-02-22T11:18:45.333Z,103378.64
2019-02-22T11:19:46.609Z,103383.63
2019-02-22T11:20:48.045Z,103384.97
2019-02-22T11:21:49.245Z,103384.39
2019-02-22T11:22:50.364Z,103384.02
2019-02-22T11:23:51.493Z,103380.48
2019-02-22T11:24:52.606Z,103373.64
2019-02-22T11:25:53.724Z,103374.61
2019-02-22T11:26:54.951Z,103380.86
2019-02-22T11:27:56.071Z,103381.70
2019-02-22T11:28:57.192Z,103379.13
2019-02-22T11:29:58.350Z,103371.92
2019-02-22T11:30:59.472Z,103374.23
2019-02-22T11:32:00.588Z,103375.48
2019-02-22T11:33:01.809Z,103370.58
2019-02-22T11:34:04.834Z,103366.55
2019-02-22T11:35:07.910Z,103365.58
2019-02-22T11:36:09.132Z,103367.80
2019-02-22T11:37:10.248Z,103365.96
2019-02-22T11:38:11.470Z,103368.66
2019-02-22T11:39:12.577Z,103361.94
2019-02-22T11:40:13.721Z,103364.63